createdAt,value
2018-09-11T00:00:06.829Z,16.00
2018-09-11T00:02:35.151Z,16.00
2018-09-11T00:05:03.508Z,16.00
2018-09-11T00:07:31.841Z,16.10
2018-09-11T00:10:00.208Z,16.00
2018-09-11T00:12:28.526Z,16.00
2018-09-11T00:14:56.878Z,16.00
2018-09-11T00:17:25.184Z,16.00
2018-09-11T00:19:54.375Z,16.00
2018-09-11T00:22:22.711Z,16.00
2018-09-11T00:24:51.041Z,16.00
2018-09-11T00:27:21.071Z,16.10
2018-09-11T00:29:49.404Z,16.00
2018-09-11T00:32:17.765Z,16.00
2018-09-11T00:34:46.076Z,16.00
2018-09-11T00:37:14.435Z,16.00
2018-09-11T00:39:42.760Z,16.00
2018-09-11T00:42:11.108Z,15.90
2018-09-11T00:44:39.446Z,15.90
2018-09-11T00:47:08.202Z,15.90
2018-09-11T00:49:36.568Z,15.90
2018-09-11T00:52:05.560Z,15.90
2018-09-11T00:54:33.945Z,15.90
2018-09-11T00:57:02.280Z,15.80
2018-09-11T00:59:30.606Z,15.80
2018-09-11T01:01:58.924Z,15.80
2018-09-11T01:04:27.241Z,15.80
2018-09-11T01:06:55.633Z,15.70
2018-09-11T01:09:23.942Z,15.70
2018-09-11T01:11:52.288Z,15.60
2018-09-11T01:14:20.631Z,15.60
2018-09-11T01:16:48.980Z,15.60
2018-09-11T01:19:17.319Z,15.50
2018-09-11T01:21:46.492Z,15.60
2018-09-11T01:24:14.828Z,15.50
2018-09-11T01:26:43.176Z,15.60
2018-09-11T01:29:12.335Z,15.70
2018-09-11T01:31:40.646Z,15.70
2018-09-11T01:34:09.576Z,15.70
2018-09-11T01:36:38.504Z,15.60
2018-09-11T01:39:09.362Z,15.70
2018-09-11T01:41:37.778Z,15.70
2018-09-11T01:44:06.241Z,15.70
2018-09-11T01:46:34.572Z,15.70
2018-09-11T01:49:03.077Z,15.70
2018-09-11T01:51:31.421Z,15.60
2018-09-11T01:53:59.865Z,15.60
2018-09-11T01:56:28.397Z,15.60
2018-09-11T01:58:56.752Z,15.50
2018-09-11T02:01:25.067Z,15.50
2018-09-11T02:03:53.408Z,15.50
2018-09-11T02:06:21.721Z,15.50
2018-09-11T02:08:50.063Z,15.50
2018-09-11T02:11:18.389Z,15.40
2018-09-11T02:13:46.784Z,15.40
2018-09-11T02:16:15.077Z,15.40
2018-09-11T02:18:44.174Z,15.50
2018-09-11T02:24:10.984Z,15.40
2018-09-11T02:26:39.297Z,15.40
2018-09-11T02:29:08.523Z,15.40
2018-09-11T02:31:37.386Z,15.40
2018-09-11T02:34:06.529Z,15.30
2018-09-11T02:36:34.856Z,15.30
2018-09-11T02:39:03.957Z,15.20
2018-09-11T02:41:33.278Z,15.20
2018-09-11T02:44:01.592Z,15.20
2018-09-11T02:46:29.902Z,15.10
2018-09-11T02:48:58.246Z,15.20
2018-09-11T02:51:26.567Z,15.20
2018-09-11T02:53:54.896Z,15.20
2018-09-11T02:56:23.209Z,15.30
2018-09-11T02:58:51.524Z,15.30
2018-09-11T03:01:19.836Z,15.40
2018-09-11T03:03:48.242Z,15.40
2018-09-11T03:06:16.604Z,15.40
2018-09-11T03:08:44.942Z,15.40
2018-09-11T03:11:13.274Z,15.30
2018-09-11T03:13:41.597Z,15.30
2018-09-11T03:16:09.901Z,15.30
2018-09-11T03:18:38.249Z,15.30
2018-09-11T03:21:06.556Z,15.30
2018-09-11T03:23:35.109Z,15.20
2018-09-11T03:26:03.428Z,15.10
2018-09-11T03:28:32.632Z,15.10
2018-09-11T03:31:00.967Z,15.10
2018-09-11T03:33:29.301Z,15.10
2018-09-11T03:35:57.613Z,15.10
2018-09-11T03:38:25.946Z,15.00
2018-09-11T03:40:54.252Z,15.00
2018-09-11T03:43:22.566Z,15.00
2018-09-11T03:45:51.206Z,15.00
2018-09-11T03:48:20.660Z,15.00
2018-09-11T03:50:50.184Z,14.90
2018-09-11T03:53:18.661Z,14.90
2018-09-11T03:55:47.561Z,14.90
2018-09-11T03:58:16.864Z,14.90
2018-09-11T04:00:45.225Z,14.90
2018-09-11T04:03:13.573Z,14.90
2018-09-11T04:05:41.881Z,14.80
2018-09-11T04:08:10.197Z,14.80
2018-09-11T04:10:38.534Z,14.80
2018-09-11T04:13:06.884Z,14.80
2018-09-11T04:15:35.240Z,14.80
2018-09-11T04:18:03.572Z,14.80
2018-09-11T04:20:31.885Z,14.70
2018-09-11T04:23:00.308Z,14.70
2018-09-11T04:25:28.759Z,14.70
2018-09-11T04:27:57.080Z,14.70
2018-09-11T04:30:25.398Z,14.80
2018-09-11T04:32:54.080Z,14.80
2018-09-11T04:35:22.985Z,14.70
2018-09-11T04:37:51.285Z,14.70
2018-09-11T04:40:19.600Z,14.70
2018-09-11T04:42:47.931Z,14.70
2018-09-11T04:45:16.213Z,14.70
2018-09-11T04:47:44.504Z,14.70
2018-09-11T04:50:12.836Z,14.70
2018-09-11T04:52:41.168Z,14.60
2018-09-11T04:55:09.552Z,14.60
2018-09-11T04:57:37.866Z,14.60
2018-09-11T05:00:06.296Z,14.50
2018-09-11T05:02:34.606Z,14.60
2018-09-11T05:05:02.948Z,14.50
2018-09-11T05:07:31.277Z,14.50
2018-09-11T05:09:59.605Z,14.40
2018-09-11T05:12:27.908Z,14.40
2018-09-11T05:14:56.233Z,14.40
2018-09-11T05:17:24.596Z,14.40
2018-09-11T05:19:53.801Z,14.40
2018-09-11T05:22:22.111Z,14.40
2018-09-11T05:24:50.441Z,14.40
2018-09-11T05:27:18.777Z,14.50
2018-09-11T05:29:47.658Z,14.50
2018-09-11T05:32:16.021Z,14.50
2018-09-11T05:34:44.342Z,14.40
2018-09-11T05:37:12.707Z,14.50
2018-09-11T05:39:41.019Z,14.50
2018-09-11T05:42:09.928Z,14.50
2018-09-11T05:44:38.249Z,14.50
2018-09-11T05:47:06.566Z,14.60
2018-09-11T05:49:34.904Z,14.60
2018-09-11T05:52:03.239Z,14.60
2018-09-11T05:54:31.609Z,14.60
2018-09-11T05:57:00.044Z,14.50
2018-09-11T05:59:28.384Z,14.60
2018-09-11T06:01:56.764Z,14.50
2018-09-11T06:04:25.142Z,14.60
2018-09-11T06:06:53.448Z,14.70
2018-09-11T06:09:21.804Z,14.70
2018-09-11T06:11:51.006Z,14.80
2018-09-11T06:14:19.340Z,14.90
2018-09-11T06:16:47.750Z,15.00
2018-09-11T06:19:16.070Z,14.90
2018-09-11T06:21:44.380Z,15.00
2018-09-11T06:24:12.689Z,15.00
2018-09-11T06:26:41.029Z,15.00
2018-09-11T06:29:09.424Z,15.00
2018-09-11T06:31:37.694Z,15.10
2018-09-11T06:34:06.127Z,15.20
2018-09-11T06:36:34.441Z,15.30
2018-09-11T06:39:02.817Z,15.40
2018-09-11T06:41:31.137Z,15.40
2018-09-11T06:43:59.496Z,15.50
2018-09-11T06:46:27.800Z,15.60
2018-09-11T06:48:56.117Z,15.70
2018-09-11T06:51:24.445Z,15.80
2018-09-11T06:53:52.757Z,15.90
2018-09-11T06:56:21.081Z,16.00
2018-09-11T06:58:49.419Z,16.10
2018-09-11T07:01:17.721Z,16.20
2018-09-11T07:03:46.034Z,16.30
2018-09-11T07:06:14.357Z,16.40
2018-09-11T07:08:43.194Z,16.50
2018-09-11T07:11:11.501Z,16.60
2018-09-11T07:13:39.825Z,16.80
2018-09-11T07:16:08.157Z,16.90
2018-09-11T07:18:36.493Z,17.10
2018-09-11T07:21:04.925Z,17.30
2018-09-11T07:23:33.249Z,17.50
2018-09-11T07:26:01.619Z,17.60
2018-09-11T07:28:29.860Z,17.80
2018-09-11T07:30:58.296Z,17.90
2018-09-11T07:33:26.600Z,18.00
2018-09-11T07:35:55.229Z,18.10
2018-09-11T07:38:23.528Z,18.10
2018-09-11T07:40:51.836Z,18.10
2018-09-11T07:43:20.156Z,18.20
2018-09-11T07:45:48.468Z,18.20
2018-09-11T07:48:16.768Z,18.20
2018-09-11T07:50:45.154Z,18.30
2018-09-11T07:53:13.928Z,18.40
2018-09-11T07:55:42.267Z,18.50
2018-09-11T07:58:10.604Z,18.60
2018-09-11T08:00:38.915Z,18.80
2018-09-11T08:03:07.380Z,18.90
2018-09-11T08:05:35.684Z,19.00
2018-09-11T08:08:04.035Z,19.10
2018-09-11T08:10:32.358Z,19.10
2018-09-11T08:13:00.665Z,19.30
2018-09-11T08:15:28.990Z,19.40
2018-09-11T08:17:57.293Z,19.30
2018-09-11T08:20:25.606Z,19.40
2018-09-11T08:22:53.917Z,19.40
2018-09-11T08:25:22.925Z,19.50
2018-09-11T08:27:51.229Z,19.70
2018-09-11T08:30:19.587Z,19.80
2018-09-11T08:32:48.058Z,20.00
2018-09-11T08:35:16.373Z,20.10
2018-09-11T08:37:45.429Z,20.20
2018-09-11T08:40:13.788Z,20.30
2018-09-11T08:42:42.044Z,20.30
2018-09-11T08:45:10.386Z,20.50
2018-09-11T08:47:39.365Z,20.50
2018-09-11T08:50:07.697Z,20.60
2018-09-11T08:52:36.037Z,20.80
2018-09-11T08:55:04.481Z,20.80
2018-09-11T08:57:32.804Z,20.90
2018-09-11T09:00:01.121Z,20.90
2018-09-11T09:02:29.436Z,21.00
2018-09-11T09:04:57.760Z,21.10
2018-09-11T09:07:26.077Z,21.10
2018-09-11T09:09:54.406Z,21.20
2018-09-11T09:12:23.364Z,21.40
2018-09-11T09:14:51.661Z,21.40
2018-09-11T09:17:20.121Z,21.60
2018-09-11T09:19:48.420Z,21.50
2018-09-11T09:22:17.072Z,21.50
2018-09-11T09:24:45.607Z,21.60
2018-09-11T09:27:13.970Z,21.80
2018-09-11T09:29:42.306Z,21.70
2018-09-11T09:32:10.608Z,21.90
2018-09-11T09:34:38.905Z,22.00
2018-09-11T09:37:07.390Z,21.90
2018-09-11T09:39:35.692Z,21.90
2018-09-11T09:42:04.013Z,22.10
2018-09-11T09:44:32.389Z,22.30
2018-09-11T09:47:00.696Z,22.30
2018-09-11T09:49:28.985Z,22.30
2018-09-11T09:51:57.320Z,22.40
2018-09-11T09:54:25.650Z,22.40
2018-09-11T09:56:53.960Z,22.40
2018-09-11T09:59:22.340Z,22.50
2018-09-11T10:01:55.800Z,22.50
2018-09-11T10:04:24.130Z,22.40
2018-09-11T10:06:52.461Z,22.60
2018-09-11T10:09:20.776Z,23.00
2018-09-11T10:11:49.119Z,23.00
2018-09-11T10:14:17.425Z,23.10
2018-09-11T10:16:45.738Z,23.30
2018-09-11T10:19:14.069Z,23.40
2018-09-11T10:21:42.396Z,23.20
2018-09-11T10:24:10.761Z,23.10
2018-09-11T10:26:39.069Z,23.40
2018-09-11T10:29:07.733Z,23.50
2018-09-11T10:31:36.036Z,23.60
2018-09-11T10:34:05.181Z,23.50
2018-09-11T10:36:33.496Z,23.70
2018-09-11T10:39:01.832Z,23.60
2018-09-11T10:41:30.282Z,24.00
2018-09-11T10:43:58.509Z,24.10
2018-09-11T10:46:26.875Z,24.10
2018-09-11T10:48:55.646Z,24.60
2018-09-11T10:51:23.905Z,24.40
2018-09-11T10:53:52.220Z,24.30
2018-09-11T10:56:20.550Z,24.10
2018-09-11T10:58:48.905Z,24.10
2018-09-11T11:01:17.213Z,24.20
2018-09-11T11:03:46.370Z,24.00
2018-09-11T11:06:14.820Z,24.30
2018-09-11T11:08:43.156Z,24.60
2018-09-11T11:11:11.473Z,24.70
2018-09-11T11:13:39.825Z,24.70
2018-09-11T11:16:08.193Z,25.10
2018-09-11T11:18:36.508Z,24.90
2018-09-11T11:21:04.830Z,25.50
2018-09-11T11:23:33.160Z,25.50
2018-09-11T11:26:01.640Z,25.10
2018-09-11T11:28:37.161Z,25.80
2018-09-11T11:31:05.553Z,26.00
2018-09-11T11:33:33.844Z,26.20
2018-09-11T11:36:02.184Z,26.30
2018-09-11T11:38:30.504Z,26.10
2018-09-11T11:40:58.813Z,26.40
2018-09-11T11:43:27.181Z,26.10
2018-09-11T11:45:55.948Z,26.00
2018-09-11T11:48:24.290Z,25.70
2018-09-11T11:50:53.154Z,26.40
2018-09-11T11:53:21.974Z,26.20
2018-09-11T11:55:50.335Z,26.50
2018-09-11T11:58:18.632Z,25.70
2018-09-11T12:00:47.041Z,25.40
2018-09-11T12:03:16.077Z,25.70
2018-09-11T12:05:44.418Z,26.30
2018-09-11T12:08:12.728Z,27.00
2018-09-11T12:10:41.043Z,26.50
2018-09-11T12:13:09.395Z,26.60
2018-09-11T12:15:38.316Z,27.20
2018-09-11T12:18:06.655Z,27.40
2018-09-11T12:20:34.986Z,27.60
2018-09-11T12:23:03.316Z,27.50
2018-09-11T12:25:31.696Z,27.50
2018-09-11T12:28:00.014Z,27.30
2018-09-11T12:30:28.384Z,27.80
2018-09-11T12:32:56.733Z,28.30
2018-09-11T12:35:25.092Z,28.00
2018-09-11T12:37:53.393Z,28.60
2018-09-11T12:40:22.232Z,28.40
2018-09-11T12:42:50.526Z,27.90
2018-09-11T12:45:18.901Z,28.30
2018-09-11T12:47:47.520Z,27.70
2018-09-11T12:50:15.574Z,27.50
2018-09-11T12:52:43.882Z,28.20
2018-09-11T12:55:12.416Z,28.60
2018-09-11T12:57:41.182Z,29.00
2018-09-11T13:00:09.712Z,29.30
2018-09-11T13:02:39.181Z,29.00
2018-09-11T13:05:07.564Z,29.30
2018-09-11T13:07:39.420Z,29.40
2018-09-11T13:10:07.756Z,30.10
2018-09-11T13:12:36.608Z,29.80
2018-09-11T13:15:05.243Z,30.50
2018-09-11T13:17:33.538Z,30.30
2018-09-11T13:20:01.907Z,30.60
2018-09-11T13:22:30.218Z,29.50
2018-09-11T13:24:58.560Z,29.00
2018-09-11T13:27:26.921Z,29.50
2018-09-11T13:29:55.225Z,30.20
2018-09-11T13:32:23.541Z,30.60
2018-09-11T13:34:51.832Z,31.00
2018-09-11T13:37:20.172Z,31.20
2018-09-11T13:39:48.485Z,31.00
2018-09-11T13:42:16.837Z,30.30
2018-09-11T13:44:45.194Z,30.50
2018-09-11T13:47:13.550Z,30.10
2018-09-11T13:49:41.849Z,31.20
2018-09-11T13:52:10.185Z,31.80
2018-09-11T13:54:38.582Z,32.00
2018-09-11T13:57:06.969Z,31.40
2018-09-11T13:59:35.516Z,31.60
2018-09-11T14:02:03.918Z,32.20
2018-09-11T14:04:32.897Z,32.90
2018-09-11T14:07:01.241Z,32.20
2018-09-11T14:09:29.560Z,31.40
2018-09-11T14:11:57.991Z,31.40
2018-09-11T14:14:26.346Z,30.60
2018-09-11T14:16:56.433Z,30.20
2018-09-11T14:19:24.858Z,31.10
2018-09-11T14:21:56.121Z,30.60
2018-09-11T14:24:28.174Z,30.30
2018-09-11T14:26:56.651Z,30.20
2018-09-11T14:29:25.868Z,31.90
2018-09-11T14:31:54.260Z,32.20
2018-09-11T14:34:22.638Z,31.90
2018-09-11T14:36:50.912Z,32.10
2018-09-11T14:39:19.749Z,32.20
2018-09-11T14:41:48.100Z,32.20
2018-09-11T14:44:16.401Z,31.50
2018-09-11T14:46:47.255Z,32.20
2018-09-11T14:49:15.644Z,32.00
2018-09-11T14:51:43.986Z,32.10
2018-09-11T14:54:12.754Z,32.10
2018-09-11T14:56:41.225Z,31.50
2018-09-11T14:59:09.533Z,31.10
2018-09-11T15:01:37.954Z,31.40
2018-09-11T15:04:06.357Z,31.60
2018-09-11T15:06:34.670Z,31.70
2018-09-11T15:09:03.251Z,31.10
2018-09-11T15:11:31.594Z,31.30
2018-09-11T15:13:59.914Z,31.60
2018-09-11T15:16:29.437Z,31.90
2018-09-11T15:19:00.920Z,31.50
2018-09-11T15:21:29.322Z,31.40
2018-09-11T15:23:57.932Z,31.20
2018-09-11T15:26:26.384Z,31.60
2018-09-11T15:28:54.813Z,31.60
2018-09-11T15:31:23.134Z,31.90
2018-09-11T15:33:52.540Z,31.60
2018-09-11T15:36:21.146Z,31.30
2018-09-11T15:38:49.506Z,32.30
2018-09-11T15:41:18.449Z,31.60
2018-09-11T15:43:47.393Z,31.20
2018-09-11T15:46:15.706Z,31.50
2018-09-11T15:48:44.317Z,31.20
2018-09-11T15:51:12.653Z,31.10
2018-09-11T15:53:41.005Z,30.90
2018-09-11T15:56:09.369Z,31.00
2018-09-11T15:58:37.713Z,31.10
2018-09-11T16:01:08.265Z,30.50
2018-09-11T16:03:36.698Z,30.90
2018-09-11T16:06:05.572Z,30.20
2018-09-11T16:08:34.089Z,30.40
2018-09-11T16:11:02.677Z,30.60
2018-09-11T16:13:31.068Z,30.30
2018-09-11T16:15:59.406Z,30.50
2018-09-11T16:18:27.782Z,29.80
2018-09-11T16:20:56.318Z,30.30
2018-09-11T16:23:24.643Z,30.10
2018-09-11T16:25:52.982Z,30.30
2018-09-11T16:28:21.538Z,30.50
2018-09-11T16:30:49.866Z,30.30
2018-09-11T16:33:18.262Z,30.20
2018-09-11T16:35:46.668Z,30.10
2018-09-11T16:38:15.161Z,29.90
2018-09-11T16:40:43.746Z,29.40
2018-09-11T16:43:12.085Z,29.60
2018-09-11T16:45:40.445Z,29.50
2018-09-11T16:48:08.791Z,29.00
2018-09-11T16:50:37.160Z,28.60
2018-09-11T16:53:05.958Z,28.70
2018-09-11T16:55:34.281Z,29.00
2018-09-11T16:58:03.460Z,28.80
2018-09-11T17:00:31.770Z,28.80
2018-09-11T17:03:00.101Z,28.80
2018-09-11T17:05:28.399Z,28.60
2018-09-11T17:07:56.740Z,28.10
2018-09-11T17:10:25.528Z,27.90
2018-09-11T17:12:54.513Z,27.60
2018-09-11T17:15:22.816Z,27.40
2018-09-11T17:17:51.173Z,27.40
2018-09-11T17:20:19.561Z,27.40
2018-09-11T17:22:47.818Z,27.20
2018-09-11T17:25:16.125Z,27.10
2018-09-11T17:27:44.543Z,26.80
2018-09-11T17:30:12.848Z,26.80
2018-09-11T17:32:41.201Z,26.60
2018-09-11T17:35:10.528Z,26.60
2018-09-11T17:37:39.382Z,26.60
2018-09-11T17:40:07.776Z,26.40
2018-09-11T17:42:36.081Z,26.20
2018-09-11T17:45:04.432Z,26.00
2018-09-11T17:47:32.808Z,26.00
2018-09-11T17:50:01.120Z,25.90
2018-09-11T17:52:29.460Z,25.70
2018-09-11T17:54:57.793Z,25.70
2018-09-11T17:57:26.197Z,25.60
2018-09-11T17:59:54.680Z,25.50
2018-09-11T18:02:22.989Z,25.50
2018-09-11T18:04:51.347Z,25.40
2018-09-11T18:07:19.678Z,25.30
2018-09-11T18:09:48.033Z,25.00
2018-09-11T18:12:16.352Z,24.90
2018-09-11T18:14:44.657Z,24.90
2018-09-11T18:17:13.041Z,24.90
2018-09-11T18:19:41.347Z,24.90
2018-09-11T18:22:09.692Z,24.80
2018-09-11T18:24:38.048Z,24.60
2018-09-11T18:27:06.397Z,24.60
2018-09-11T18:29:34.728Z,24.50
2018-09-11T18:32:03.064Z,24.50
2018-09-11T18:34:31.405Z,24.40
2018-09-11T18:36:59.767Z,24.30
2018-09-11T18:39:28.076Z,24.20
2018-09-11T18:41:56.379Z,23.90
2018-09-11T18:44:24.776Z,23.80
2018-09-11T18:46:53.050Z,23.60
2018-09-11T18:49:21.357Z,23.30
2018-09-11T18:51:49.749Z,23.20
2018-09-11T18:54:18.009Z,23.10
2018-09-11T18:56:46.405Z,23.10
2018-09-11T18:59:14.776Z,22.80
2018-09-11T19:01:43.097Z,22.50
2018-09-11T19:04:11.445Z,22.30
2018-09-11T19:06:49.270Z,22.30
2018-09-11T19:09:25.474Z,22.10
2018-09-11T19:12:01.549Z,22.10
2018-09-11T19:14:37.339Z,22.20
2018-09-11T19:17:13.697Z,22.30
2018-09-11T19:19:46.368Z,22.50
2018-09-11T19:22:19.909Z,22.60
2018-09-11T19:25:01.991Z,22.60
2018-09-11T19:27:32.201Z,22.50
2018-09-11T19:30:11.213Z,22.50
2018-09-11T19:32:40.037Z,22.50
2018-09-11T19:35:08.796Z,22.40
2018-09-11T19:37:37.821Z,22.40
2018-09-11T19:40:06.545Z,22.30
2018-09-11T19:42:36.081Z,22.20
2018-09-11T19:45:04.709Z,22.20
2018-09-11T19:47:33.035Z,22.30
2018-09-11T19:50:16.578Z,22.00
2018-09-11T19:52:44.877Z,22.00
2018-09-11T19:55:13.207Z,22.10
2018-09-11T19:57:41.562Z,22.20
2018-09-11T20:00:09.963Z,21.90
2018-09-11T20:02:38.390Z,22.00
2018-09-11T20:05:07.081Z,22.10
2018-09-11T20:07:35.489Z,22.10
2018-09-11T20:10:03.947Z,22.20
2018-09-11T20:12:32.304Z,22.20
2018-09-11T20:15:00.623Z,22.20
2018-09-11T20:17:28.936Z,22.00
2018-09-11T20:19:57.268Z,22.00
2018-09-11T20:22:25.646Z,21.90
2018-09-11T20:24:54.204Z,21.90
2018-09-11T20:27:22.529Z,21.80
2018-09-11T20:29:50.857Z,21.60
2018-09-11T20:32:19.831Z,21.50
2018-09-11T20:34:48.167Z,21.50
2018-09-11T20:37:16.522Z,21.20
2018-09-11T20:39:44.889Z,20.50
2018-09-11T20:42:13.193Z,19.90
2018-09-11T20:44:41.537Z,19.70
2018-09-11T20:47:09.854Z,19.50
2018-09-11T20:49:38.172Z,19.50
2018-09-11T20:52:06.516Z,19.40
2018-09-11T20:54:34.880Z,19.40
2018-09-11T20:57:03.208Z,19.40
2018-09-11T20:59:32.240Z,19.40
2018-09-11T21:02:00.686Z,19.50
2018-09-11T21:04:29.030Z,19.40
2018-09-11T21:06:57.396Z,19.40
2018-09-11T21:09:26.044Z,19.30
2018-09-11T21:11:54.413Z,19.50
2018-09-11T21:14:22.835Z,19.50
2018-09-11T21:16:51.145Z,19.60
2018-09-11T21:22:02.512Z,19.90
2018-09-11T21:24:30.818Z,20.10
2018-09-11T21:26:59.155Z,20.00
2018-09-11T21:29:29.093Z,20.20
2018-09-11T21:31:57.686Z,20.20
2018-09-11T21:34:26.621Z,20.30
2018-09-11T21:36:55.820Z,20.40
2018-09-11T21:39:24.183Z,20.50
2018-09-11T21:41:52.528Z,20.60
2018-09-11T21:44:26.688Z,20.60
2018-09-11T21:46:55.584Z,20.50
2018-09-11T21:49:27.979Z,20.40
2018-09-11T21:52:05.964Z,20.40
2018-09-11T21:54:41.918Z,20.40
2018-09-11T21:57:13.569Z,20.40
2018-09-11T21:59:46.169Z,20.30
2018-09-11T22:02:19.456Z,20.30
2018-09-11T22:04:47.802Z,20.30
2018-09-11T22:07:16.138Z,20.30
2018-09-11T22:09:44.449Z,20.20
2018-09-11T22:12:12.803Z,20.20
2018-09-11T22:14:41.121Z,20.20
2018-09-11T22:17:10.366Z,20.20
2018-09-11T22:19:38.685Z,20.10
2018-09-11T22:22:07.011Z,20.10
2018-09-11T22:24:35.342Z,20.00
2018-09-11T22:27:03.682Z,20.00
2018-09-11T22:29:32.003Z,20.00
2018-09-11T22:32:00.312Z,20.00
2018-09-11T22:34:28.625Z,20.00
2018-09-11T22:36:56.945Z,20.00
2018-09-11T22:39:25.261Z,20.00
2018-09-11T22:41:53.604Z,19.90
2018-09-11T22:44:21.965Z,19.90
2018-09-11T22:46:50.285Z,19.80
2018-09-11T22:49:18.614Z,19.80
2018-09-11T22:51:46.923Z,19.80
2018-09-11T22:54:15.208Z,19.80
2018-09-11T22:56:43.539Z,19.80
2018-09-11T22:59:11.880Z,19.70
2018-09-11T23:01:40.186Z,19.70
2018-09-11T23:04:08.495Z,19.70
2018-09-11T23:06:36.792Z,19.70
2018-09-11T23:09:07.314Z,19.60
2018-09-11T23:11:35.638Z,19.60
2018-09-11T23:14:04.799Z,19.60
2018-09-11T23:16:33.126Z,19.50
2018-09-11T23:19:01.446Z,19.50
2018-09-11T23:21:29.795Z,19.50
2018-09-11T23:23:58.277Z,19.40
2018-09-11T23:26:26.612Z,19.40
2018-09-11T23:28:55.034Z,19.30
2018-09-11T23:31:23.401Z,19.30
2018-09-11T23:33:51.739Z,19.20
2018-09-11T23:36:20.969Z,19.20
2018-09-11T23:38:49.283Z,19.20
2018-09-11T23:41:17.630Z,19.20
2018-09-11T23:43:46.635Z,19.10
2018-09-11T23:46:14.936Z,19.10
2018-09-11T23:48:43.996Z,19.10
2018-09-11T23:51:12.314Z,19.00
2018-09-11T23:53:40.670Z,18.60
2018-09-11T23:56:08.990Z,18.20
2018-09-11T23:58:37.333Z,17.80
